createdAt,value
2019-06-27T00:03:02.904Z,24.1
2019-06-27T00:06:09.068Z,24
2019-06-27T00:09:15.285Z,24.1
2019-06-27T00:12:21.609Z,24
2019-06-27T00:15:28.005Z,24
2019-06-27T00:18:34.252Z,24
2019-06-27T00:21:40.462Z,24
2019-06-27T00:24:46.678Z,24
2019-06-27T00:27:52.937Z,24
2019-06-27T00:30:59.129Z,23.9
2019-06-27T00:34:05.508Z,23.9
2019-06-27T00:37:11.690Z,23.9
2019-06-27T00:40:17.854Z,23.9
2019-06-27T00:43:24.010Z,23.9
2019-06-27T00:46:30.204Z,23.9
2019-06-27T00:49:36.422Z,23.9
2019-06-27T00:52:42.650Z,23.9
2019-06-27T00:55:48.854Z,23.9
2019-06-27T00:58:55.135Z,23.8
2019-06-27T01:02:01.318Z,23.8
2019-06-27T01:05:07.580Z,23.8
2019-06-27T01:08:13.772Z,23.8
2019-06-27T01:11:20.064Z,23.8
2019-06-27T01:14:26.352Z,23.7
2019-06-27T01:17:32.710Z,23.8
2019-06-27T01:20:38.987Z,23.7
2019-06-27T01:23:45.301Z,23.7
2019-06-27T01:26:51.525Z,23.8
2019-06-27T01:29:57.769Z,23.7
2019-06-27T01:33:04.047Z,23.7
2019-06-27T01:36:10.322Z,23.7
2019-06-27T01:39:16.630Z,23.6
2019-06-27T01:42:22.781Z,23.6
2019-06-27T01:45:29.005Z,23.7
2019-06-27T01:48:37.989Z,23.6
2019-06-27T01:51:44.346Z,23.6
2019-06-27T01:54:50.622Z,23.6
2019-06-27T01:57:56.846Z,23.6
2019-06-27T02:01:05.799Z,23.5
2019-06-27T02:04:12.035Z,23.6
2019-06-27T02:07:18.229Z,23.5
2019-06-27T02:10:24.399Z,23.5
2019-06-27T02:13:30.649Z,23.5
2019-06-27T02:16:36.908Z,23.5
2019-06-27T02:19:43.221Z,23.5
2019-06-27T02:22:49.357Z,23.5
2019-06-27T02:25:55.632Z,23.5
2019-06-27T02:29:01.827Z,23.5
2019-06-27T02:32:08.061Z,23.5
2019-06-27T02:35:14.181Z,23.4
2019-06-27T02:38:20.486Z,23.4
2019-06-27T02:41:26.676Z,23.4
2019-06-27T02:44:32.935Z,23.4
2019-06-27T02:47:39.154Z,23.4
2019-06-27T02:50:45.377Z,23.3
2019-06-27T02:53:51.594Z,23.3
2019-06-27T02:56:57.769Z,23.3
2019-06-27T03:00:04.164Z,23.4
2019-06-27T03:03:10.449Z,23.3
2019-06-27T03:06:16.568Z,23.4
2019-06-27T03:09:22.782Z,23.4
2019-06-27T03:12:29.056Z,23.4
2019-06-27T03:15:35.203Z,23.4
2019-06-27T03:18:41.568Z,23.4
2019-06-27T03:21:47.807Z,23.4
2019-06-27T03:24:54.054Z,23.5
2019-06-27T03:28:00.317Z,23.5
2019-06-27T03:31:06.544Z,23.6
2019-06-27T03:34:12.914Z,23.6
2019-06-27T03:37:19.275Z,23.6
2019-06-27T03:40:25.550Z,23.7
2019-06-27T03:43:31.834Z,23.8
2019-06-27T03:46:38.197Z,23.8
2019-06-27T03:49:44.406Z,23.9
2019-06-27T03:52:50.715Z,24
2019-06-27T03:55:57.002Z,24.1
2019-06-27T03:59:11.949Z,24.2
2019-06-27T04:02:19.549Z,24.3
2019-06-27T04:05:25.724Z,24.3
2019-06-27T04:08:32.085Z,24.5
2019-06-27T04:11:38.247Z,24.7
2019-06-27T04:14:44.474Z,24.9
2019-06-27T04:17:50.711Z,24.9
2019-06-27T04:20:57.022Z,24.9
2019-06-27T04:24:03.428Z,24.8
2019-06-27T04:27:09.837Z,25.1
2019-06-27T04:30:16.100Z,25.4
2019-06-27T04:33:22.283Z,25.9
2019-06-27T04:36:28.469Z,26
2019-06-27T04:39:34.640Z,26.4
2019-06-27T04:42:41.001Z,26.7
2019-06-27T04:45:47.318Z,26.9
2019-06-27T04:48:53.601Z,27.1
2019-06-27T04:52:00.146Z,27.1
2019-06-27T04:55:06.508Z,27
2019-06-27T04:58:12.821Z,26.6
2019-06-27T05:01:19.046Z,26.3
2019-06-27T05:04:25.356Z,26.1
2019-06-27T05:07:31.578Z,26
2019-06-27T05:10:37.885Z,25.9
2019-06-27T05:13:44.160Z,25.7
2019-06-27T05:16:50.337Z,25.7
2019-06-27T05:19:56.483Z,25.6
2019-06-27T05:23:06.864Z,25.6
2019-06-27T05:26:13.072Z,25.5
2019-06-27T05:29:19.274Z,25.5
2019-06-27T05:32:25.530Z,25.5
2019-06-27T05:35:31.712Z,25.6
2019-06-27T05:38:37.895Z,25.6
2019-06-27T05:41:44.192Z,25.6
2019-06-27T05:44:53.919Z,25.7
2019-06-27T05:48:00.076Z,25.6
2019-06-27T05:51:06.219Z,25.7
2019-06-27T05:54:12.504Z,25.7
2019-06-27T05:57:18.650Z,25.8
2019-06-27T06:00:28.589Z,25.8
2019-06-27T06:03:35.540Z,25.8
2019-06-27T06:06:41.663Z,25.8
2019-06-27T06:09:47.846Z,25.8
2019-06-27T06:12:53.942Z,25.9
2019-06-27T06:16:01.212Z,25.9
2019-06-27T06:19:07.690Z,26
2019-06-27T06:22:14.088Z,26
2019-06-27T06:25:20.467Z,26.1
2019-06-27T06:28:26.741Z,26.1
2019-06-27T06:31:32.919Z,26.1
2019-06-27T06:34:39.200Z,26.2
2019-06-27T06:37:45.397Z,26.2
2019-06-27T06:40:51.818Z,26.2
2019-06-27T06:43:57.986Z,26.3
2019-06-27T06:47:04.128Z,26.4
2019-06-27T06:50:10.335Z,26.4
2019-06-27T06:53:16.675Z,26.5
2019-06-27T06:56:23.011Z,26.5
2019-06-27T06:59:29.384Z,26.5
2019-06-27T07:02:35.475Z,26.6
2019-06-27T07:05:41.683Z,26.6
2019-06-27T07:08:47.869Z,26.8
2019-06-27T07:11:54.055Z,26.8
2019-06-27T07:15:00.274Z,26.8
2019-06-27T07:18:06.783Z,26.9
2019-06-27T07:21:12.951Z,26.9
2019-06-27T07:24:19.173Z,27
2019-06-27T07:27:25.336Z,27
2019-06-27T07:30:31.551Z,27
2019-06-27T07:33:37.822Z,27
2019-06-27T07:36:44.096Z,27.2
2019-06-27T07:39:50.270Z,27.1
2019-06-27T07:42:56.837Z,27.1
2019-06-27T07:46:03.047Z,27.2
2019-06-27T07:49:09.187Z,27.2
2019-06-27T07:52:15.326Z,27.2
2019-06-27T07:55:21.523Z,27.3
2019-06-27T07:58:28.306Z,27.3
2019-06-27T08:01:36.015Z,27.2
2019-06-27T08:04:42.449Z,27.3
2019-06-27T08:07:48.738Z,27.2
2019-06-27T08:10:55.108Z,27.3
2019-06-27T08:14:01.371Z,27.2
2019-06-27T08:17:07.553Z,27.3
2019-06-27T08:20:13.717Z,27.3
2019-06-27T08:23:19.950Z,27.2
2019-06-27T08:26:26.108Z,27.3
2019-06-27T08:29:32.314Z,27.3
2019-06-27T08:32:38.445Z,27.4
2019-06-27T08:35:44.679Z,27.4
2019-06-27T08:38:51.143Z,27.4
2019-06-27T08:41:57.619Z,27.4
2019-06-27T08:45:03.844Z,27.5
2019-06-27T08:48:10.085Z,27.5
2019-06-27T08:51:16.790Z,27.4
2019-06-27T08:54:23.268Z,27.4
2019-06-27T08:57:29.410Z,27.4
2019-06-27T09:00:35.641Z,27.4
2019-06-27T09:03:42.049Z,27.4
2019-06-27T09:06:48.376Z,27.3
2019-06-27T09:09:54.620Z,27.3
2019-06-27T09:13:00.914Z,27.3
2019-06-27T09:16:07.555Z,27.3
2019-06-27T09:19:13.769Z,27.3
2019-06-27T09:22:19.943Z,27.3
2019-06-27T09:25:26.156Z,27.2
2019-06-27T09:28:32.405Z,27.3
2019-06-27T09:31:38.569Z,27.3
2019-06-27T09:34:44.981Z,27.3
2019-06-27T09:37:51.198Z,27.3
2019-06-27T09:40:57.371Z,27.3
2019-06-27T09:44:03.582Z,27.3
2019-06-27T09:47:09.910Z,27.3
2019-06-27T09:50:16.149Z,27.3
2019-06-27T09:53:26.561Z,27.2
2019-06-27T09:56:32.915Z,27.2
2019-06-27T09:59:39.027Z,27.2
2019-06-27T10:02:45.340Z,27.1
2019-06-27T10:05:51.477Z,27.1
2019-06-27T10:08:57.624Z,27.1
2019-06-27T10:12:03.893Z,27.1
2019-06-27T10:15:10.065Z,27.1
2019-06-27T10:18:16.381Z,27.1
2019-06-27T10:21:22.722Z,27.1
2019-06-27T10:24:28.812Z,27.1
2019-06-27T10:27:34.991Z,26.9
2019-06-27T10:30:41.238Z,27
2019-06-27T10:33:47.328Z,27
2019-06-27T10:36:53.513Z,27.1
2019-06-27T10:39:59.737Z,27.1
2019-06-27T10:43:05.990Z,27.1
2019-06-27T10:46:12.194Z,27
2019-06-27T10:49:18.437Z,27
2019-06-27T10:52:24.650Z,27.1
2019-06-27T10:55:30.979Z,27
2019-06-27T10:58:37.291Z,27
2019-06-27T11:01:43.440Z,27
2019-06-27T11:04:49.689Z,27
2019-06-27T11:07:55.935Z,27
2019-06-27T11:11:02.275Z,26.9
2019-06-27T11:14:08.423Z,26.9
2019-06-27T11:17:14.627Z,26.8
2019-06-27T11:20:20.784Z,26.7
2019-06-27T11:23:27.233Z,26.8
2019-06-27T11:26:33.531Z,26.8
2019-06-27T11:29:39.800Z,26.8
2019-06-27T11:32:45.975Z,26.6
2019-06-27T11:35:52.262Z,26.6
2019-06-27T11:38:58.522Z,26.6
2019-06-27T11:42:04.917Z,26.6
2019-06-27T11:45:11.137Z,26.6
2019-06-27T11:48:17.315Z,26.6
2019-06-27T11:51:23.589Z,26.5
2019-06-27T11:54:29.906Z,26.5
2019-06-27T11:57:36.099Z,26.5
2019-06-27T12:00:42.741Z,26.5
2019-06-27T12:03:50.516Z,26.5
2019-06-27T12:06:56.748Z,26.5
2019-06-27T12:10:03.062Z,26.5
2019-06-27T12:13:09.336Z,26.4
2019-06-27T12:16:15.483Z,26.3
2019-06-27T12:19:21.666Z,26.1
2019-06-27T12:22:27.836Z,26.2
2019-06-27T12:25:34.206Z,26.2
2019-06-27T12:28:40.415Z,26.2
2019-06-27T12:31:46.628Z,26.1
2019-06-27T12:34:56.701Z,26.2
2019-06-27T12:38:02.916Z,26.1
2019-06-27T12:41:09.135Z,26.2
2019-06-27T12:44:15.367Z,26.1
2019-06-27T12:47:21.572Z,26.1
2019-06-27T12:50:27.778Z,26.1
2019-06-27T12:53:33.986Z,26
2019-06-27T12:56:40.436Z,26
2019-06-27T12:59:46.780Z,26
2019-06-27T13:02:52.978Z,26
2019-06-27T13:05:59.249Z,25.9
2019-06-27T13:09:05.456Z,26
2019-06-27T13:12:11.616Z,26.1
2019-06-27T13:15:17.725Z,26.1
2019-06-27T13:18:23.958Z,26.1
2019-06-27T13:21:30.255Z,26.2
2019-06-27T13:24:36.530Z,26.1
2019-06-27T13:27:42.989Z,26.1
2019-06-27T13:30:49.448Z,26.1
2019-06-27T13:33:55.790Z,26.2
2019-06-27T13:37:02.068Z,26.2
2019-06-27T13:40:08.383Z,26.2
2019-06-27T13:43:14.691Z,26.2
2019-06-27T13:46:20.841Z,26.2
2019-06-27T13:49:27.043Z,26.3
2019-06-27T13:52:33.258Z,26.3
2019-06-27T13:55:39.530Z,26.4
2019-06-27T13:58:45.670Z,26.4
2019-06-27T14:01:51.845Z,26.4
2019-06-27T14:04:58.118Z,26.4
2019-06-27T14:08:04.313Z,26.4
2019-06-27T14:11:10.471Z,26.5
2019-06-27T14:14:16.702Z,26.5
2019-06-27T14:17:22.996Z,26.5
2019-06-27T14:20:29.406Z,26.5
2019-06-27T14:23:35.596Z,26.5
2019-06-27T14:26:41.843Z,26.5
2019-06-27T14:29:48.116Z,26.5
2019-06-27T14:32:54.304Z,26.5
2019-06-27T14:36:00.536Z,26.5
2019-06-27T14:39:06.903Z,26.5
2019-06-27T14:42:12.999Z,26.5
2019-06-27T14:45:19.255Z,26.5
2019-06-27T14:48:25.667Z,26.5
2019-06-27T14:51:31.838Z,26.5
2019-06-27T14:54:38.090Z,26.5
2019-06-27T14:57:44.246Z,26.5
2019-06-27T15:00:50.426Z,26.5
2019-06-27T15:03:56.555Z,26.5
2019-06-27T15:07:02.993Z,26.5
2019-06-27T15:10:09.402Z,26.5
2019-06-27T15:13:16.076Z,26.5
2019-06-27T15:16:22.235Z,26.5
2019-06-27T15:19:28.501Z,26.4
2019-06-27T15:22:34.705Z,26.5
2019-06-27T15:25:40.994Z,26.5
2019-06-27T15:28:47.337Z,26.4
2019-06-27T15:31:53.530Z,26.4
2019-06-27T15:34:59.914Z,26.4
2019-06-27T15:38:06.131Z,26.4
2019-06-27T15:41:12.300Z,26.4
2019-06-27T15:44:20.680Z,26.3
2019-06-27T15:47:27.049Z,26.3
2019-06-27T15:50:33.282Z,26.2
2019-06-27T15:53:39.458Z,26.2
2019-06-27T15:56:45.661Z,26.2
2019-06-27T15:59:51.901Z,26.1
2019-06-27T16:02:58.220Z,26.1
2019-06-27T16:06:09.632Z,26.1
2019-06-27T16:09:20.388Z,26.1
2019-06-27T16:12:26.575Z,26
2019-06-27T16:15:32.879Z,26
2019-06-27T16:18:40.935Z,26
2019-06-27T16:21:47.367Z,26
2019-06-27T16:24:53.642Z,25.9
2019-06-27T16:28:02.329Z,25.9
2019-06-27T16:31:08.581Z,25.9
2019-06-27T16:34:14.822Z,25.9
2019-06-27T16:37:20.939Z,25.9
2019-06-27T16:40:27.255Z,25.9
2019-06-27T16:43:33.523Z,25.9
2019-06-27T16:46:39.935Z,25.8
2019-06-27T16:49:46.137Z,25.7
2019-06-27T16:52:52.285Z,25.8
2019-06-27T16:55:58.484Z,25.8
2019-06-27T16:59:04.654Z,25.8
2019-06-27T17:02:10.883Z,25.8
2019-06-27T17:05:17.172Z,25.8
2019-06-27T17:08:23.337Z,25.8
2019-06-27T17:11:29.502Z,25.7
2019-06-27T17:14:35.627Z,25.7
2019-06-27T17:17:41.794Z,25.6
2019-06-27T17:20:48.115Z,25.7
2019-06-27T17:23:54.342Z,25.6
2019-06-27T17:27:00.544Z,25.6
2019-06-27T17:30:06.815Z,25.6
2019-06-27T17:33:13.138Z,25.6
2019-06-27T17:36:19.289Z,25.5
2019-06-27T17:39:25.461Z,25.6
2019-06-27T17:42:31.728Z,25.6
2019-06-27T17:45:37.961Z,25.6
2019-06-27T17:48:44.141Z,25.5
2019-06-27T17:51:50.317Z,25.6
2019-06-27T17:54:56.571Z,25.6
2019-06-27T17:58:02.771Z,25.5
2019-06-27T18:01:09.051Z,25.5
2019-06-27T18:04:15.218Z,25.5
2019-06-27T18:07:21.367Z,25.5
2019-06-27T18:10:27.618Z,25.5
2019-06-27T18:13:33.854Z,25.5
2019-06-27T18:16:40.247Z,25.5
2019-06-27T18:19:46.416Z,25.6
2019-06-27T18:22:55.653Z,25.6
2019-06-27T18:26:01.851Z,25.6
2019-06-27T18:29:07.974Z,25.5
2019-06-27T18:32:14.170Z,25.6
2019-06-27T18:35:20.330Z,25.6
2019-06-27T18:38:26.494Z,25.6
2019-06-27T18:41:32.770Z,25.6
2019-06-27T18:44:38.932Z,25.5
2019-06-27T18:47:45.345Z,25.6
2019-06-27T18:50:51.572Z,25.6
2019-06-27T18:54:00.731Z,25.6
2019-06-27T18:57:07.338Z,25.6
2019-06-27T19:00:13.534Z,25.6
2019-06-27T19:03:19.701Z,25.6
2019-06-27T19:06:28.416Z,25.6
2019-06-27T19:09:34.556Z,25.7
2019-06-27T19:12:40.845Z,25.7
2019-06-27T19:15:47.091Z,25.7
2019-06-27T19:18:53.252Z,25.7
2019-06-27T19:21:59.500Z,25.7
2019-06-27T19:25:05.751Z,25.7
2019-06-27T19:28:11.922Z,25.7
2019-06-27T19:31:18.048Z,25.7
2019-06-27T19:34:24.231Z,25.7
2019-06-27T19:37:30.426Z,25.7
2019-06-27T19:40:36.633Z,25.7
2019-06-27T19:43:42.849Z,25.7
2019-06-27T19:46:49.039Z,25.7
2019-06-27T19:49:55.288Z,25.7
2019-06-27T19:53:01.500Z,25.8
2019-06-27T19:56:07.769Z,25.7
2019-06-27T19:59:14.025Z,25.7
2019-06-27T20:02:20.335Z,25.7
2019-06-27T20:05:26.609Z,25.7
2019-06-27T20:08:32.941Z,25.7
2019-06-27T20:11:39.065Z,25.7
2019-06-27T20:14:45.260Z,25.8
2019-06-27T20:17:51.515Z,25.7
2019-06-27T20:20:57.658Z,25.8
2019-06-27T20:24:03.871Z,25.8
2019-06-27T20:27:10.033Z,25.7
2019-06-27T20:30:16.218Z,25.7
2019-06-27T20:33:22.369Z,25.7
2019-06-27T20:36:28.511Z,25.7
2019-06-27T20:39:37.913Z,25.7
2019-06-27T20:42:46.585Z,25.7
2019-06-27T20:45:52.755Z,25.7
2019-06-27T20:48:59.035Z,25.7
2019-06-27T20:52:05.274Z,25.7
2019-06-27T20:55:13.733Z,25.7
2019-06-27T20:58:21.156Z,25.7
2019-06-27T21:01:30.514Z,25.7
2019-06-27T21:04:37.738Z,25.7
2019-06-27T21:07:43.909Z,25.7
2019-06-27T21:10:50.089Z,25.7
2019-06-27T21:13:56.355Z,25.7
2019-06-27T21:17:02.649Z,25.7
2019-06-27T21:20:08.997Z,25.7
2019-06-27T21:23:15.287Z,25.6
2019-06-27T21:26:21.539Z,25.6
2019-06-27T21:29:27.722Z,25.7
2019-06-27T21:32:33.990Z,25.6
2019-06-27T21:35:40.218Z,25.7
2019-06-27T21:38:46.459Z,25.6
2019-06-27T21:41:52.575Z,25.7
2019-06-27T21:44:58.912Z,25.7
2019-06-27T21:48:05.223Z,25.6
2019-06-27T21:51:11.479Z,25.6
2019-06-27T21:54:17.711Z,25.6
2019-06-27T21:57:23.916Z,25.6
2019-06-27T22:00:32.700Z,25.6
2019-06-27T22:03:39.086Z,25.6
2019-06-27T22:06:45.448Z,25.6
2019-06-27T22:09:51.675Z,25.6
2019-06-27T22:12:57.908Z,25.6
2019-06-27T22:16:04.071Z,25.5
2019-06-27T22:19:10.327Z,25.5
2019-06-27T22:22:16.539Z,25.6
2019-06-27T22:25:35.964Z,25.5
2019-06-27T22:28:46.878Z,25.5
2019-06-27T22:31:53.105Z,25.5
2019-06-27T22:34:59.273Z,25.5
2019-06-27T22:38:05.447Z,25.5
2019-06-27T22:41:11.646Z,25.5
2019-06-27T22:44:20.441Z,25.5
2019-06-27T22:47:26.661Z,25.5
2019-06-27T22:50:32.803Z,25.5
2019-06-27T22:53:38.958Z,25.5
2019-06-27T22:56:45.270Z,25.5
2019-06-27T22:59:51.502Z,25.5
2019-06-27T23:02:57.622Z,25.5
2019-06-27T23:06:03.812Z,25.4
2019-06-27T23:09:10.036Z,25.5
2019-06-27T23:12:16.256Z,25.4
2019-06-27T23:15:22.518Z,25.4
2019-06-27T23:18:28.686Z,25.4
2019-06-27T23:21:35.155Z,25.4
2019-06-27T23:24:41.429Z,25.4
2019-06-27T23:27:47.550Z,25.4
2019-06-27T23:30:53.819Z,25.4
2019-06-27T23:34:00.120Z,25.4
2019-06-27T23:37:06.556Z,25.4
2019-06-27T23:40:14.816Z,25.4
2019-06-27T23:43:21.183Z,25.4
2019-06-27T23:46:27.365Z,25.4
2019-06-27T23:49:33.654Z,25.3
2019-06-27T23:52:39.834Z,25.3
2019-06-27T23:55:46.061Z,25.3
2019-06-27T23:58:55.019Z,25.4
